Time;durP1;ratioP1;P1;durP2;ratioP2;P2;SDS_P1;SDS_P2;PMS_P1;PMS_P2;Temp;Humidity;BMP_temperature;BMP_pressure;BME280_temperature;BME280_humidity;BME280_pressure;Samples;Min_cycle;Max_cycle;Signal;HPM_P1;HPM_P2
2022/08/31 00:06:15;;;;;;;1.10;0.30;;;21.30;68.30;;;;;;5053269;28;20044;-79
2022/08/31 00:08:41;;;;;;;1.27;0.40;;;21.30;68.50;;;;;;5053333;28;20555;-79
2022/08/31 00:11:12;;;;;;;1.98;0.30;;;21.30;68.40;;;;;;5053476;28;20427;-79
2022/08/31 00:13:38;;;;;;;0.93;0.30;;;21.30;68.40;;;;;;5053227;28;20025;-79
2022/08/31 00:16:04;;;;;;;1.35;0.30;;;21.30;68.20;;;;;;5053111;28;20017;-79
2022/08/31 00:18:30;;;;;;;1.60;0.40;;;21.30;68.40;;;;;;5053302;28;20380;-79
2022/08/31 00:20:55;;;;;;;3.22;0.40;;;21.20;68.50;;;;;;5053142;28;20472;-79
2022/08/31 00:23:21;;;;;;;1.02;0.40;;;21.30;68.50;;;;;;5053180;28;20109;-79
2022/08/31 00:25:47;;;;;;;1.88;0.50;;;21.10;68.90;;;;;;5052633;28;20477;-79
2022/08/31 00:28:15;;;;;;;1.02;0.40;;;20.90;69.50;;;;;;5053163;28;20032;-79
2022/08/31 00:30:42;;;;;;;0.50;0.20;;;20.80;69.90;;;;;;5053205;28;20043;-78
2022/08/31 00:33:08;;;;;;;2.25;0.30;;;20.90;70.30;;;;;;5053177;28;20032;-79
2022/08/31 00:35:35;;;;;;;0.90;0.32;;;21.00;69.30;;;;;;5052647;28;20021;-79
2022/08/31 00:38:02;;;;;;;1.08;0.22;;;21.10;69.10;;;;;;5053242;28;20032;-79
2022/08/31 00:40:28;;;;;;;1.00;0.40;;;21.10;68.80;;;;;;5052972;28;20036;-79
2022/08/31 00:42:55;;;;;;;0.77;0.20;;;21.20;68.60;;;;;;5052720;28;20022;-79
2022/08/31 00:45:21;;;;;;;0.60;0.30;;;21.20;68.50;;;;;;5052617;28;20392;-79
2022/08/31 00:47:47;;;;;;;1.77;0.30;;;21.30;68.40;;;;;;5053030;28;20075;-79
2022/08/31 00:50:16;;;;;;;3.95;0.75;;;21.40;68.20;;;;;;5052931;28;20025;-79
2022/08/31 00:52:49;;;;;;;2.33;0.40;;;21.30;68.10;;;;;;5052701;28;20048;-79
2022/08/31 00:55:20;;;;;;;1.30;0.30;;;21.30;68.10;;;;;;5053022;28;20083;-79
2022/08/31 00:57:49;;;;;;;0.55;0.28;;;21.20;68.30;;;;;;5052662;28;20064;-79
2022/08/31 01:00:23;;;;;;;0.40;0.30;;;21.10;68.70;;;;;;5052457;28;20092;-79
2022/08/31 01:02:49;;;;;;;1.15;0.30;;;21.10;68.70;;;;;;5052853;28;20021;-79
2022/08/31 01:05:16;;;;;;;0.68;0.30;;;21.10;68.70;;;;;;5052942;28;20029;-79
2022/08/31 01:07:45;;;;;;;1.52;0.28;;;21.10;68.50;;;;;;5052427;28;20103;-79
2022/08/31 01:10:11;;;;;;;1.20;0.50;;;21.10;68.50;;;;;;5052879;28;20091;-79
2022/08/31 01:12:37;;;;;;;1.35;0.40;;;21.00;68.60;;;;;;5052484;28;20424;-79
2022/08/31 01:15:06;;;;;;;1.13;0.20;;;21.10;69.30;;;;;;5052587;28;20029;-79
2022/08/31 01:17:33;;;;;;;1.67;0.30;;;21.10;68.60;;;;;;5052480;28;20029;-79
2022/08/31 01:20:24;;;;;;;0.63;0.20;;;21.10;68.50;;;;;;5052849;28;20029;-79
2022/08/31 01:23:09;;;;;;;1.30;0.30;;;21.20;68.30;;;;;;5052924;28;20471;-79
2022/08/31 01:25:37;;;;;;;2.28;0.60;;;21.30;68.70;;;;;;5052519;28;20374;-79
2022/08/31 01:28:08;;;;;;;1.02;0.32;;;21.20;67.80;;;;;;5052134;28;20076;-79
2022/08/31 01:30:34;;;;;;;1.85;0.35;;;21.00;68.10;;;;;;5052893;28;20029;-79
2022/08/31 01:33:00;;;;;;;2.42;0.22;;;20.80;68.60;;;;;;5056257;28;20025;-79
2022/08/31 01:35:26;;;;;;;1.08;0.30;;;20.70;69.00;;;;;;5055928;28;20115;-79
2022/08/31 01:37:52;;;;;;;0.98;0.20;;;20.70;69.00;;;;;;5056083;28;20049;-79
2022/08/31 01:40:18;;;;;;;1.55;0.55;;;20.70;69.20;;;;;;5055787;28;20063;-79
2022/08/31 01:42:44;;;;;;;1.50;0.30;;;20.80;69.10;;;;;;5055858;28;20107;-79
2022/08/31 01:45:10;;;;;;;0.57;0.20;;;20.70;68.80;;;;;;5055762;28;20472;-79
2022/08/31 01:47:37;;;;;;;0.82;0.45;;;20.80;68.90;;;;;;5055502;28;20499;-79
2022/08/31 01:50:03;;;;;;;0.88;0.20;;;20.80;68.70;;;;;;5055622;28;20067;-79
2022/08/31 01:52:29;;;;;;;0.90;0.20;;;20.80;68.70;;;;;;5055431;28;20102;-79
2022/08/31 01:54:55;;;;;;;3.80;0.50;;;20.80;68.60;;;;;;5055733;28;20032;-79
2022/08/31 01:57:21;;;;;;;1.10;0.35;;;20.80;68.60;;;;;;5055884;28;20029;-79
2022/08/31 01:59:46;;;;;;;0.77;0.20;;;20.60;68.70;;;;;;5055513;28;20028;-79
2022/08/31 02:02:12;;;;;;;3.13;0.30;;;20.60;69.00;;;;;;5055630;28;20028;-79
2022/08/31 02:04:37;;;;;;;2.47;0.60;;;20.70;68.70;;;;;;5055236;28;20104;-79
2022/08/31 02:07:03;;;;;;;1.20;0.30;;;20.60;68.70;;;;;;5055623;28;20017;-79
2022/08/31 02:09:30;;;;;;;2.00;0.43;;;20.60;68.60;;;;;;5055208;28;20033;-79
2022/08/31 02:11:56;;;;;;;1.17;0.20;;;20.60;68.30;;;;;;5055113;28;20064;-79
2022/08/31 02:14:22;;;;;;;0.68;0.28;;;20.60;68.70;;;;;;5055548;28;20059;-79
2022/08/31 02:16:48;;;;;;;1.38;0.40;;;20.60;68.70;;;;;;5055187;28;20425;-79
2022/08/31 02:19:14;;;;;;;1.08;0.40;;;20.50;68.50;;;;;;5055329;28;20025;-79
2022/08/31 02:21:40;;;;;;;1.40;0.30;;;20.60;68.80;;;;;;5055372;28;20423;-79
2022/08/31 02:24:07;;;;;;;0.75;0.38;;;20.50;68.30;;;;;;5055018;28;20048;-78
2022/08/31 02:26:33;;;;;;;0.95;0.20;;;20.30;68.00;;;;;;5055033;28;20079;-79
2022/08/31 02:28:59;;;;;;;0.80;0.20;;;20.20;68.90;;;;;;5054870;28;20368;-79
2022/08/31 02:31:25;;;;;;;1.25;0.20;;;20.30;69.20;;;;;;5055149;28;20025;-79
2022/08/31 02:33:50;;;;;;;0.60;0.20;;;20.40;69.30;;;;;;5055261;28;20021;-79
2022/08/31 02:36:16;;;;;;;1.85;0.20;;;20.60;68.80;;;;;;5054553;28;20043;-79
2022/08/31 02:38:41;;;;;;;0.68;0.30;;;20.70;68.70;;;;;;5054844;28;20071;-79
2022/08/31 02:41:07;;;;;;;0.90;0.20;;;20.90;68.70;;;;;;5055048;28;20372;-79
2022/08/31 02:43:34;;;;;;;0.70;0.20;;;20.90;68.20;;;;;;5053467;28;20376;-79
2022/08/31 02:45:59;;;;;;;0.47;0.20;;;21.00;67.50;;;;;;5054840;28;20029;-79
2022/08/31 02:48:25;;;;;;;0.68;0.20;;;21.00;67.60;;;;;;5054242;28;20108;-79
2022/08/31 02:50:51;;;;;;;1.17;0.35;;;21.00;66.90;;;;;;5054838;28;20082;-79
2022/08/31 02:53:20;;;;;;;1.13;0.20;;;21.00;66.50;;;;;;5055048;28;20536;-79
2022/08/31 02:55:45;;;;;;;0.65;0.20;;;20.80;66.50;;;;;;5054261;28;20037;-79
2022/08/31 02:58:12;;;;;;;0.75;0.10;;;20.70;67.20;;;;;;5054594;28;20025;-79
2022/08/31 03:00:38;;;;;;;0.85;0.30;;;20.70;67.40;;;;;;5054348;28;20108;-79
2022/08/31 03:03:04;;;;;;;1.25;0.43;;;20.70;67.40;;;;;;5054411;28;20476;-79
2022/08/31 03:05:30;;;;;;;0.95;0.20;;;20.70;67.40;;;;;;5054395;28;20027;-79
2022/08/31 03:07:56;;;;;;;0.70;0.38;;;20.70;67.60;;;;;;5054387;28;20028;-79
2022/08/31 03:10:22;;;;;;;1.38;0.20;;;20.70;66.50;;;;;;5054077;28;20063;-79
2022/08/31 03:12:49;;;;;;;1.63;0.22;;;20.60;66.80;;;;;;5054240;28;20124;-79
2022/08/31 03:15:15;;;;;;;0.50;0.20;;;20.50;67.40;;;;;;5054350;28;20025;-79
2022/08/31 03:17:41;;;;;;;2.83;0.40;;;20.30;67.10;;;;;;5054354;28;20464;-79
2022/08/31 03:20:08;;;;;;;0.93;0.20;;;20.30;66.70;;;;;;5053968;28;20067;-79
2022/08/31 03:22:34;;;;;;;0.95;0.20;;;20.20;67.50;;;;;;5053695;28;20049;-79
2022/08/31 03:25:00;;;;;;;1.98;0.55;;;20.20;67.70;;;;;;5053870;28;20060;-79
2022/08/31 03:27:29;;;;;;;1.65;0.20;;;20.20;67.30;;;;;;5053604;28;20388;-79
2022/08/31 03:29:55;;;;;;;0.90;0.40;;;20.20;67.10;;;;;;5054099;28;20044;-79
2022/08/31 03:32:21;;;;;;;0.82;0.20;;;20.20;66.40;;;;;;5053887;28;20056;-79
2022/08/31 03:34:46;;;;;;;0.40;0.20;;;20.00;67.20;;;;;;5053718;28;20064;-79
2022/08/31 03:37:12;;;;;;;2.88;0.70;;;20.00;67.50;;;;;;5053670;28;20029;-79
2022/08/31 03:39:38;;;;;;;1.25;0.35;;;20.00;67.70;;;;;;5053658;28;20032;-79
2022/08/31 03:42:05;;;;;;;0.57;0.10;;;20.00;67.20;;;;;;5053266;28;20025;-79
2022/08/31 03:44:31;;;;;;;1.55;0.20;;;20.10;67.80;;;;;;5053603;28;20036;-79
2022/08/31 03:46:58;;;;;;;0.60;0.20;;;20.10;66.80;;;;;;5053812;28;20030;-79
2022/08/31 03:49:24;;;;;;;0.85;0.30;;;20.00;66.60;;;;;;5053125;28;20549;-79
2022/08/31 03:51:51;;;;;;;1.13;0.30;;;20.00;67.20;;;;;;5053500;28;20036;-79
2022/08/31 03:54:17;;;;;;;0.93;0.22;;;20.00;66.30;;;;;;5052974;28;20108;-79
2022/08/31 03:56:43;;;;;;;0.88;0.20;;;20.00;67.10;;;;;;5053370;28;20071;-79
2022/08/31 03:59:09;;;;;;;0.93;0.20;;;20.00;67.10;;;;;;5053228;28;20028;-79
2022/08/31 04:01:35;;;;;;;0.90;0.30;;;20.10;67.00;;;;;;5053117;28;20028;-79
2022/08/31 04:04:01;;;;;;;1.73;0.20;;;20.20;67.30;;;;;;5053563;28;20523;-80
2022/08/31 04:06:27;;;;;;;0.40;0.17;;;20.20;66.30;;;;;;5053396;28;20032;-80
2022/08/31 04:08:54;;;;;;;2.53;0.30;;;20.10;65.80;;;;;;5052819;28;20029;-80
2022/08/31 04:11:20;;;;;;;0.60;0.20;;;20.00;65.10;;;;;;5053504;28;20025;-80
2022/08/31 04:13:46;;;;;;;2.05;0.40;;;19.90;66.30;;;;;;5053390;28;20025;-80
2022/08/31 04:16:15;;;;;;;1.75;0.20;;;19.90;66.50;;;;;;5053148;28;20025;-80
2022/08/31 04:18:42;;;;;;;0.70;0.22;;;20.00;67.20;;;;;;5053258;28;20059;-80
2022/08/31 04:21:22;;;;;;;1.42;0.30;;;20.00;66.20;;;;;;5053009;28;20377;-80
2022/08/31 04:23:49;;;;;;;3.25;0.20;;;20.00;65.30;;;;;;5053133;28;20129;-80
2022/08/31 04:26:23;;;;;;;0.75;0.20;;;19.90;65.50;;;;;;5053078;28;20045;-80
2022/08/31 04:28:49;;;;;;;1.00;0.10;;;19.90;66.80;;;;;;5053181;28;20041;-80
2022/08/31 04:31:15;;;;;;;0.30;0.10;;;20.00;67.10;;;;;;5053139;28;20021;-80
2022/08/31 04:33:42;;;;;;;0.52;0.20;;;20.20;67.40;;;;;;5053315;28;20048;-79
2022/08/31 04:36:11;;;;;;;2.20;0.20;;;20.20;65.50;;;;;;5052637;28;20017;-80
2022/08/31 04:38:37;;;;;;;2.42;0.30;;;20.10;64.90;;;;;;5053204;28;20029;-79
2022/08/31 04:41:05;;;;;;;0.47;0.20;;;19.90;66.00;;;;;;5052879;28;20370;-79
2022/08/31 04:43:31;;;;;;;0.40;0.10;;;19.80;65.40;;;;;;5052737;28;20033;-79
2022/08/31 04:45:57;;;;;;;0.73;0.20;;;19.80;65.60;;;;;;5053168;28;20063;-79
2022/08/31 04:48:23;;;;;;;0.45;0.15;;;19.90;66.40;;;;;;5052564;28;20032;-79
2022/08/31 04:50:49;;;;;;;0.50;0.15;;;19.80;64.40;;;;;;5052720;28;20056;-79
2022/08/31 04:53:15;;;;;;;0.30;0.13;;;19.70;65.10;;;;;;5053116;28;20040;-79
2022/08/31 04:55:42;;;;;;;0.95;0.17;;;19.80;66.10;;;;;;5052797;28;20115;-80
2022/08/31 04:58:08;;;;;;;0.40;0.17;;;19.70;64.90;;;;;;5052969;28;20059;-80
2022/08/31 05:00:35;;;;;;;0.80;0.17;;;19.80;65.30;;;;;;5052890;28;20025;-79
2022/08/31 05:03:01;;;;;;;0.90;0.25;;;19.80;65.00;;;;;;5052789;28;20155;-79
2022/08/31 05:05:27;;;;;;;0.55;0.10;;;19.80;63.90;;;;;;5052787;28;20534;-79
2022/08/31 05:07:52;;;;;;;0.55;0.20;;;19.80;65.10;;;;;;5056752;28;20032;-80
2022/08/31 05:10:18;;;;;;;0.50;0.20;;;19.80;64.30;;;;;;5056577;28;20400;-79
2022/08/31 05:12:43;;;;;;;0.73;0.20;;;19.80;65.10;;;;;;5056719;28;20025;-79
2022/08/31 05:15:09;;;;;;;1.63;0.20;;;19.90;64.60;;;;;;5056363;28;20029;-79
2022/08/31 05:17:35;;;;;;;0.60;0.30;;;19.90;63.50;;;;;;5056008;28;20526;-79
2022/08/31 05:20:01;;;;;;;2.15;0.20;;;19.80;63.70;;;;;;5056496;28;20025;-79
2022/08/31 05:22:28;;;;;;;0.55;0.10;;;19.80;63.10;;;;;;5056199;28;20036;-79
2022/08/31 05:24:54;;;;;;;0.40;0.10;;;19.60;63.00;;;;;;5056052;28;20041;-79
2022/08/31 05:27:19;;;;;;;0.95;0.43;;;19.70;64.60;;;;;;5055942;28;20040;-79
2022/08/31 05:29:45;;;;;;;1.05;0.47;;;19.60;63.30;;;;;;5055946;28;20385;-79
2022/08/31 05:32:11;;;;;;;0.55;0.20;;;19.50;62.80;;;;;;5055975;28;20120;-79
2022/08/31 05:34:36;;;;;;;0.47;0.10;;;19.30;62.80;;;;;;5055905;28;20029;-79
2022/08/31 05:37:02;;;;;;;0.50;0.10;;;19.20;64.00;;;;;;5055611;28;20490;-79
2022/08/31 05:39:29;;;;;;;0.30;0.10;;;19.20;63.80;;;;;;5055732;28;20032;-82
2022/08/31 05:41:55;;;;;;;0.85;0.28;;;19.30;64.30;;;;;;5054001;28;20048;-81
2022/08/31 05:44:20;;;;;;;0.52;0.20;;;19.50;67.10;;;;;;5055583;28;20048;-89
2022/08/31 05:46:46;;;;;;;1.38;0.20;;;20.00;67.20;;;;;;5053375;28;20212;-88
2022/08/31 05:49:12;;;;;;;2.92;0.10;;;20.20;63.30;;;;;;5053442;28;20048;-88
2022/08/31 05:51:38;;;;;;;0.73;0.20;;;20.40;63.30;;;;;;5053896;28;20040;-87
2022/08/31 05:54:04;;;;;;;2.83;0.20;;;20.50;62.50;;;;;;5054279;28;20464;-80
2022/08/31 05:56:30;;;;;;;1.58;0.15;;;20.60;61.50;;;;;;5055500;28;20044;-79
2022/08/31 05:58:56;;;;;;;1.05;0.30;;;20.50;60.60;;;;;;5055538;28;20063;-79
2022/08/31 06:01:29;;;;;;;0.95;0.10;;;20.50;60.60;;;;;;5054936;28;20388;-85
2022/08/31 06:03:56;;;;;;;0.55;0.10;;;20.50;60.40;;;;;;5055296;28;20035;-84
2022/08/31 06:06:23;;;;;;;0.68;0.10;;;20.60;60.60;;;;;;5054687;28;20106;-79
2022/08/31 06:08:51;;;;;;;0.28;0.10;;;20.80;60.20;;;;;;5055515;28;20043;-78
2022/08/31 06:11:20;;;;;;;1.00;0.32;;;20.90;60.20;;;;;;5054191;28;20021;-77
2022/08/31 06:13:49;;;;;;;0.88;0.10;;;21.00;59.70;;;;;;5055020;28;20032;-78
2022/08/31 06:16:16;;;;;;;2.95;0.20;;;21.00;58.90;;;;;;5054105;28;20032;-78
2022/08/31 06:18:48;;;;;;;2.40;0.10;;;20.90;59.40;;;;;;5055103;28;20029;-78
2022/08/31 06:21:14;;;;;;;3.45;0.20;;;20.90;59.30;;;;;;5054532;28;20476;-79
2022/08/31 06:23:41;;;;;;;2.95;0.20;;;21.00;59.30;;;;;;5053391;28;20116;-78
2022/08/31 06:26:14;;;;;;;0.52;0.10;;;21.00;59.30;;;;;;5052952;28;20041;-82
2022/08/31 06:28:45;;;;;;;3.15;0.10;;;21.10;58.40;;;;;;5052080;28;20041;-82
2022/08/31 06:31:18;;;;;;;0.40;0.13;;;20.80;58.40;;;;;;5051261;28;20486;-82
2022/08/31 06:33:44;;;;;;;0.50;0.10;;;20.80;59.20;;;;;;5052172;28;20065;-81
2022/08/31 06:36:16;;;;;;;0.68;0.10;;;20.70;59.30;;;;;;5053778;28;20025;-82
2022/08/31 06:38:42;;;;;;;1.75;0.20;;;20.70;59.80;;;;;;5053533;28;20052;-77
2022/08/31 06:41:29;;;;;;;1.48;0.20;;;20.80;59.60;;;;;;5053295;28;20020;-78
2022/08/31 06:43:55;;;;;;;0.70;0.20;;;21.00;58.80;;;;;;5051297;28;20116;-78
2022/08/31 06:46:22;;;;;;;0.75;0.20;;;21.00;58.90;;;;;;5053976;28;20045;-77
2022/08/31 06:48:49;;;;;;;1.92;0.20;;;21.00;59.00;;;;;;5054071;28;20037;-77
2022/08/31 06:51:16;;;;;;;2.05;0.50;;;20.80;59.00;;;;;;5053408;28;20029;-78
2022/08/31 06:53:42;;;;;;;1.20;0.20;;;20.70;59.20;;;;;;5053446;28;20037;-76
2022/08/31 06:56:17;;;;;;;0.73;0.20;;;20.70;59.50;;;;;;5052520;28;20056;-80
2022/08/31 06:58:42;;;;;;;1.00;0.30;;;20.70;59.60;;;;;;5052106;28;20021;-79
2022/08/31 07:01:12;;;;;;;1.00;0.20;;;20.70;60.00;;;;;;5053286;28;20448;-78
2022/08/31 07:03:42;;;;;;;1.02;0.20;;;20.80;60.00;;;;;;5052751;28;20044;-77
2022/08/31 07:06:11;;;;;;;1.63;0.20;;;20.70;60.10;;;;;;5052437;28;20025;-78
2022/08/31 07:08:38;;;;;;;2.17;0.20;;;20.70;61.00;;;;;;5053036;28;20021;-77
2022/08/31 07:11:09;;;;;;;1.02;0.20;;;20.90;60.30;;;;;;5052608;28;20111;-77
2022/08/31 07:13:35;;;;;;;2.92;0.10;;;21.00;60.20;;;;;;5052833;28;20547;-77
2022/08/31 07:16:09;;;;;;;0.63;0.20;;;21.10;59.90;;;;;;5052621;28;20064;-78
2022/08/31 07:18:35;;;;;;;0.68;0.10;;;21.00;59.80;;;;;;5050341;28;20100;-78
2022/08/31 07:21:09;;;;;;;1.27;0.20;;;21.00;60.10;;;;;;5052409;28;20112;-78
2022/08/31 07:23:35;;;;;;;0.68;0.10;;;21.00;60.20;;;;;;5052311;28;20373;-79
2022/08/31 07:26:09;;;;;;;0.80;0.20;;;21.00;60.00;;;;;;5052418;28;20049;-79
2022/08/31 07:28:37;;;;;;;0.65;0.20;;;21.00;60.50;;;;;;5051639;28;20060;-81
2022/08/31 07:31:04;;;;;;;0.65;0.28;;;21.00;60.70;;;;;;5052523;28;20074;-78
2022/08/31 07:33:37;;;;;;;1.27;0.20;;;21.00;61.00;;;;;;5051121;28;20037;-79
2022/08/31 07:36:08;;;;;;;0.38;0.13;;;21.00;61.20;;;;;;5047108;28;20055;-80
2022/08/31 07:44:03;;;;;;;0.80;0.20;;;21.20;61.20;;;;;;5052046;28;20082;-86
2022/08/31 07:46:30;;;;;;;1.95;0.30;;;21.20;61.40;;;;;;5052322;28;20419;-87
2022/08/31 07:48:58;;;;;;;1.83;0.35;;;21.10;61.30;;;;;;5052551;28;20051;-88
2022/08/31 07:51:25;;;;;;;1.60;0.32;;;20.90;62.20;;;;;;5053090;28;20033;-87
2022/08/31 07:53:51;;;;;;;0.82;0.30;;;20.80;62.30;;;;;;5052334;28;20053;-87
2022/08/31 07:56:18;;;;;;;2.03;0.30;;;20.70;62.80;;;;;;5052166;28;20423;-87
2022/08/31 07:58:44;;;;;;;1.00;0.20;;;20.70;63.00;;;;;;5051670;28;20591;-87
2022/08/31 08:01:10;;;;;;;0.80;0.20;;;20.80;63.30;;;;;;5051881;28;20024;-87
2022/08/31 08:03:42;;;;;;;2.90;0.20;;;20.80;63.40;;;;;;5051767;28;20491;-87
2022/08/31 08:06:14;;;;;;;5.70;0.40;;;20.90;63.70;;;;;;5052490;28;20366;-87
2022/08/31 08:08:41;;;;;;;0.90;0.20;;;20.90;63.90;;;;;;5051723;28;20036;-79
2022/08/31 08:11:08;;;;;;;3.95;0.40;;;21.10;64.10;;;;;;5052153;28;20083;-79
2022/08/31 08:13:34;;;;;;;2.95;0.30;;;21.20;63.80;;;;;;5051863;28;20033;-79
2022/08/31 08:16:00;;;;;;;1.85;0.30;;;21.40;62.90;;;;;;5051874;28;20025;-79
2022/08/31 08:18:25;;;;;;;2.72;0.50;;;21.30;63.20;;;;;;5052035;28;20052;-80
2022/08/31 08:20:51;;;;;;;1.92;0.30;;;21.30;63.40;;;;;;5051921;28;20053;-82
2022/08/31 08:23:18;;;;;;;3.30;0.32;;;21.30;63.30;;;;;;5050975;28;20479;-86
2022/08/31 08:25:44;;;;;;;0.77;0.25;;;21.30;63.20;;;;;;5051782;28;20056;-80
2022/08/31 08:28:16;;;;;;;3.13;0.70;;;21.40;63.50;;;;;;5056597;28;20396;-84
2022/08/31 08:30:43;;;;;;;2.28;0.30;;;21.50;63.70;;;;;;5053271;28;20078;-86
2022/08/31 08:33:09;;;;;;;1.00;0.22;;;21.70;63.00;;;;;;5052943;28;20025;-85
2022/08/31 08:35:35;;;;;;;1.85;0.30;;;21.70;62.90;;;;;;5052709;28;20480;-83
2022/08/31 08:38:01;;;;;;;3.90;0.20;;;21.70;63.00;;;;;;5052153;28;20029;-81
2022/08/31 08:40:41;;;;;;;3.78;0.50;;;21.70;62.90;;;;;;5053457;28;20029;-78
2022/08/31 08:43:18;;;;;;;3.17;0.70;;;21.70;62.70;;;;;;5054465;28;20036;-78
2022/08/31 08:45:47;;;;;;;1.77;0.20;;;21.70;63.60;;;;;;5053143;28;20472;-77
2022/08/31 08:48:16;;;;;;;2.78;0.30;;;21.60;63.00;;;;;;5055456;28;20033;-76
2022/08/31 08:50:42;;;;;;;2.83;0.35;;;21.60;63.50;;;;;;5055458;28;20058;-78
2022/08/31 08:53:11;;;;;;;1.63;0.20;;;21.70;63.60;;;;;;5055099;28;20017;-82
2022/08/31 08:55:40;;;;;;;2.53;0.40;;;21.70;63.60;;;;;;5056719;28;20028;-82
2022/08/31 08:58:09;;;;;;;2.55;0.40;;;21.70;63.50;;;;;;5055338;28;20035;-82
2022/08/31 09:00:37;;;;;;;1.83;0.20;;;21.70;63.60;;;;;;5053374;28;20048;-82
2022/08/31 09:03:21;;;;;;;1.13;0.20;;;21.80;63.70;;;;;;5055035;28;20047;-81
2022/08/31 09:06:22;;;;;;;3.60;0.30;;;22.00;64.10;;;;;;5054615;28;20069;-82
2022/08/31 09:09:07;;;;;;;1.83;0.30;;;22.10;63.00;;;;;;5030317;28;20544;-81
2022/08/31 09:11:52;;;;;;;4.32;0.30;;;22.10;62.70;;;;;;5054000;28;20032;-83
2022/08/31 09:14:32;;;;;;;0.88;0.20;;;21.90;63.30;;;;;;5053760;28;20029;-83
2022/08/31 09:17:15;;;;;;;1.45;0.40;;;22.10;64.00;;;;;;5053552;28;20099;-83
2022/08/31 09:20:00;;;;;;;2.55;0.28;;;22.20;63.20;;;;;;5053483;28;20388;-76
2022/08/31 09:22:48;;;;;;;2.42;0.40;;;22.20;63.70;;;;;;5055039;28;20081;-80
2022/08/31 09:25:38;;;;;;;2.83;0.20;;;22.40;63.60;;;;;;5054642;28;20056;-80
2022/08/31 09:28:10;;;;;;;1.75;0.30;;;22.50;63.70;;;;;;5054617;28;20112;-80
2022/08/31 09:30:50;;;;;;;1.65;0.30;;;22.60;62.70;;;;;;5055053;28;20029;-78
2022/08/31 09:33:21;;;;;;;0.73;0.20;;;22.60;62.30;;;;;;5055123;28;20024;-79
2022/08/31 09:35:55;;;;;;;2.35;0.32;;;22.70;62.80;;;;;;5054814;28;20021;-79
2022/08/31 09:38:28;;;;;;;2.20;0.22;;;22.90;62.20;;;;;;5054938;28;20029;-79
2022/08/31 09:40:54;;;;;;;3.15;0.85;;;22.90;62.50;;;;;;5054671;28;20024;-79
2022/08/31 09:43:23;;;;;;;2.50;0.30;;;23.00;61.80;;;;;;5054601;28;20032;-79
2022/08/31 09:46:10;;;;;;;1.05;0.30;;;23.10;61.90;;;;;;5054799;28;20421;-81
2022/08/31 09:48:51;;;;;;;1.58;0.30;;;23.30;61.20;;;;;;5054162;28;20045;-76
2022/08/31 09:51:35;;;;;;;5.88;0.30;;;23.40;61.80;;;;;;5052961;28;20059;-80
2022/08/31 09:56:56;;;;;;;2.25;0.30;;;23.60;60.10;;;;;;5051282;28;20048;-79
2022/08/31 09:59:42;;;;;;;2.88;0.25;;;23.70;59.80;;;;;;5053767;28;20029;-80
2022/08/31 10:02:21;;;;;;;2.35;0.20;;;23.80;59.60;;;;;;5051025;28;20060;-81
2022/08/31 10:04:50;;;;;;;0.70;0.20;;;24.00;59.70;;;;;;5053091;28;20060;-80
2022/08/31 10:07:43;;;;;;;0.90;0.20;;;24.00;58.90;;;;;;5053124;28;20064;-80
2022/08/31 10:10:25;;;;;;;1.13;0.40;;;24.10;59.00;;;;;;5052226;28;20506;-79
2022/08/31 10:13:00;;;;;;;4.07;0.30;;;24.20;58.80;;;;;;5052486;28;20107;-81
2022/08/31 10:15:50;;;;;;;1.02;0.30;;;24.20;58.00;;;;;;5052859;28;20029;-80
2022/08/31 10:18:42;;;;;;;1.55;0.30;;;24.10;58.20;;;;;;5051868;28;20029;-79
2022/08/31 10:21:19;;;;;;;2.35;0.30;;;24.10;58.00;;;;;;5052312;28;20040;-80
2022/08/31 10:23:55;;;;;;;2.38;0.35;;;24.10;58.10;;;;;;5053570;28;20078;-82
2022/08/31 10:26:52;;;;;;;2.17;0.40;;;24.10;58.10;;;;;;5053454;28;20069;-82
2022/08/31 10:29:38;;;;;;;2.60;0.20;;;24.20;58.20;;;;;;5053041;28;20049;-79
2022/08/31 10:32:16;;;;;;;2.20;0.55;;;24.20;57.70;;;;;;5053694;28;20025;-81
2022/08/31 10:35:04;;;;;;;1.75;0.30;;;24.30;59.00;;;;;;5053201;28;20025;-80
2022/08/31 10:38:03;;;;;;;1.38;0.20;;;24.40;57.30;;;;;;5051549;28;20059;-81
2022/08/31 10:40:33;;;;;;;0.70;0.20;;;24.20;57.70;;;;;;5054040;28;20059;-81
2022/08/31 10:43:17;;;;;;;2.33;0.20;;;24.10;58.00;;;;;;5053783;28;20032;-81
2022/08/31 10:45:49;;;;;;;1.10;0.32;;;23.90;58.60;;;;;;5053899;28;20079;-82
2022/08/31 10:48:18;;;;;;;1.92;0.60;;;23.90;58.40;;;;;;5053094;28;20033;-82
2022/08/31 10:51:18;;;;;;;1.83;0.30;;;23.80;58.40;;;;;;5053333;28;20043;-82
2022/08/31 10:54:00;;;;;;;2.28;0.30;;;23.70;58.50;;;;;;5053424;28;20483;-82
2022/08/31 10:56:40;;;;;;;4.18;0.60;;;23.60;59.10;;;;;;5040462;28;20029;-82
2022/08/31 10:59:17;;;;;;;1.15;0.30;;;23.50;59.70;;;;;;5053110;28;20040;-82
2022/08/31 11:01:56;;;;;;;1.48;0.30;;;23.60;59.20;;;;;;5052440;28;20037;-76
2022/08/31 11:04:57;;;;;;;2.78;0.30;;;23.60;59.50;;;;;;5051231;28;20477;-80
2022/08/31 11:07:25;;;;;;;1.42;0.30;;;23.60;59.90;;;;;;5049948;28;20025;-78
2022/08/31 11:10:01;;;;;;;2.13;0.50;;;23.70;60.30;;;;;;5052497;28;20033;-78
2022/08/31 11:12:39;;;;;;;3.38;0.40;;;23.60;59.70;;;;;;5052987;28;20071;-80
2022/08/31 11:15:35;;;;;;;1.42;0.28;;;23.60;59.80;;;;;;5052689;28;20059;-79
2022/08/31 11:18:39;;;;;;;2.92;0.22;;;23.70;59.70;;;;;;5052718;28;20052;-78
2022/08/31 11:21:13;;;;;;;3.65;0.73;;;23.70;59.10;;;;;;5040591;28;20056;-78
2022/08/31 11:24:11;;;;;;;3.13;0.52;;;23.80;59.20;;;;;;5052717;28;20032;-79
2022/08/31 11:27:10;;;;;;;4.47;0.40;;;23.80;59.10;;;;;;5086088;27;20390;-78
2022/08/31 11:29:55;;;;;;;2.20;0.50;;;23.80;59.30;;;;;;5087608;28;20031;-78
2022/08/31 11:32:21;;;;;;;3.13;0.30;;;23.90;59.60;;;;;;5083329;28;20379;-77
2022/08/31 11:34:53;;;;;;;1.92;0.43;;;24.00;59.20;;;;;;5071939;28;20100;-78
2022/08/31 11:37:45;;;;;;;2.13;0.30;;;24.20;59.20;;;;;;5072532;28;20063;-78
2022/08/31 11:40:11;;;;;;;1.37;0.40;;;24.40;58.70;;;;;;5086643;28;20474;-76
2022/08/31 11:42:37;;;;;;;2.83;0.50;;;24.60;57.80;;;;;;5086791;28;20323;-78
2022/08/31 11:45:25;;;;;;;2.28;0.30;;;24.60;58.10;;;;;;5081774;28;20033;-77
2022/08/31 11:47:53;;;;;;;1.48;0.40;;;24.40;57.90;;;;;;5073475;28;20021;-78
2022/08/31 11:50:22;;;;;;;2.90;0.45;;;24.40;59.00;;;;;;5083730;28;20047;-77
2022/08/31 11:52:52;;;;;;;2.40;0.40;;;24.70;59.00;;;;;;5082352;28;20482;-78
2022/08/31 11:55:28;;;;;;;1.40;0.30;;;25.00;58.30;;;;;;5073592;28;20472;-78
2022/08/31 11:58:06;;;;;;;2.47;0.47;;;25.30;56.80;;;;;;5080006;28;20108;-79
2022/08/31 12:00:48;;;;;;;3.20;0.35;;;25.40;56.50;;;;;;5070951;28;20025;-79
2022/08/31 12:03:44;;;;;;;2.55;0.38;;;25.60;56.80;;;;;;5075677;28;20020;-78
2022/08/31 12:06:32;;;;;;;3.13;0.30;;;25.70;55.50;;;;;;5082040;28;20032;-80
2022/08/31 12:09:01;;;;;;;1.60;0.28;;;25.80;55.50;;;;;;5070203;28;20025;-78
2022/08/31 12:12:05;;;;;;;1.67;0.40;;;26.00;55.30;;;;;;5080866;28;20059;-78
2022/08/31 12:14:49;;;;;;;1.95;0.30;;;26.20;55.10;;;;;;5072780;28;20070;-79
2022/08/31 12:17:19;;;;;;;4.18;0.50;;;26.40;54.70;;;;;;5086267;28;20444;-78
2022/08/31 12:20:06;;;;;;;3.90;0.95;;;26.50;54.90;;;;;;5066498;28;20101;-80
2022/08/31 12:25:53;;;;;;;1.23;0.40;;;26.70;53.80;;;;;;5086733;28;20059;-79
2022/08/31 12:28:56;;;;;;;1.40;0.30;;;26.60;53.30;;;;;;5074958;28;20031;-79
2022/08/31 12:31:22;;;;;;;2.97;0.30;;;26.60;52.70;;;;;;5049264;28;20026;-80
2022/08/31 12:34:12;;;;;;;4.82;0.40;;;26.50;53.40;;;;;;5066474;28;20032;-82
2022/08/31 12:36:38;;;;;;;2.65;0.45;;;26.60;53.50;;;;;;5084367;28;20101;-81
2022/08/31 12:39:19;;;;;;;3.33;0.22;;;26.80;53.00;;;;;;5069047;28;20490;-80
2022/08/31 12:41:55;;;;;;;2.47;0.35;;;26.70;53.20;;;;;;5059470;28;20396;-80
2022/08/31 12:44:30;;;;;;;2.45;0.30;;;26.80;53.30;;;;;;5065174;28;20028;-79
2022/08/31 12:47:23;;;;;;;2.15;0.30;;;26.90;52.30;;;;;;5057432;28;20113;-79
2022/08/31 12:50:06;;;;;;;3.38;0.40;;;27.00;52.90;;;;;;5059895;28;20027;-78
2022/08/31 12:53:22;;;;;;;1.33;0.32;;;27.10;52.90;;;;;;5056547;28;20032;-80
2022/08/31 12:55:54;;;;;;;6.43;0.40;;;27.30;52.40;;;;;;5052552;28;20029;-80
2022/08/31 12:58:40;;;;;;;0.90;0.22;;;27.30;52.40;;;;;;5055275;28;20032;-78
2022/08/31 13:01:10;;;;;;;1.85;0.35;;;27.30;52.00;;;;;;5062376;28;20037;-79
2022/08/31 13:03:38;;;;;;;0.70;0.28;;;27.30;51.80;;;;;;5065965;28;20074;-82
2022/08/31 13:06:07;;;;;;;1.83;0.38;;;27.30;51.30;;;;;;5056131;28;20044;-81
2022/08/31 13:08:42;;;;;;;0.40;0.20;;;27.30;51.10;;;;;;5069482;28;20354;-81
2022/08/31 13:11:15;;;;;;;4.05;0.30;;;27.20;51.90;;;;;;5073205;28;20052;-80
2022/08/31 13:13:41;;;;;;;1.67;0.40;;;27.40;52.00;;;;;;5054045;28;20104;-81
2022/08/31 13:16:07;;;;;;;1.63;0.40;;;27.40;51.10;;;;;;5056189;28;20429;-81
2022/08/31 13:18:34;;;;;;;1.02;0.30;;;27.30;51.40;;;;;;5068639;28;20082;-78
2022/08/31 13:21:04;;;;;;;1.92;0.30;;;27.30;51.20;;;;;;5072805;28;20059;-80
2022/08/31 13:23:37;;;;;;;1.55;0.30;;;27.30;51.50;;;;;;5067433;28;20036;-79
2022/08/31 13:26:20;;;;;;;1.10;0.20;;;27.30;52.10;;;;;;5061163;28;20053;-80